Time;durP1;ratioP1;P1;durP2;ratioP2;P2;SDS_P1;SDS_P2;PMS_P1;PMS_P2;Temp;Humidity;BMP_temperature;BMP_pressure;BME280_temperature;BME280_humidity;BME280_pressure;Samples;Min_cycle;Max_cycle;Signal;HPM_P1;HPM_P2
2022/04/01 00:01:36;;;;;;;;;;;2.30;86.80;;;;;;5024378;28;20368;-84
2022/04/01 00:04:02;;;;;;;;;;;2.30;87.30;;;;;;5015762;28;19921;-85
2022/04/01 00:06:27;;;;;;;;;;;2.40;87.00;;;;;;5035846;28;19939;-84
2022/04/01 00:08:53;;;;;;;;;;;2.30;86.70;;;;;;5050663;28;19913;-84
2022/04/01 00:11:18;;;;;;;;;;;2.20;87.00;;;;;;5035389;28;19921;-84
2022/04/01 00:13:44;;;;;;;;;;;2.20;87.20;;;;;;5032768;28;19948;-85
2022/04/01 00:16:10;;;;;;;;;;;2.20;87.70;;;;;;5031056;28;19921;-83
2022/04/01 00:18:35;;;;;;;;;;;2.20;87.10;;;;;;5029473;28;19921;-84
2022/04/01 00:21:00;;;;;;;;;;;2.20;87.40;;;;;;5032567;28;19913;-84
2022/04/01 00:23:26;;;;;;;;;;;2.20;87.50;;;;;;5032159;28;19964;-84
2022/04/01 00:25:51;;;;;;;;;;;2.10;87.30;;;;;;5031340;28;20024;-84
2022/04/01 00:28:17;;;;;;;;;;;2.20;87.40;;;;;;5046355;28;19952;-83
2022/04/01 00:30:43;;;;;;;;;;;2.30;87.10;;;;;;5050020;28;19909;-83
2022/04/01 00:33:08;;;;;;;;;;;2.20;87.20;;;;;;5059787;28;20028;-84
2022/04/01 00:35:34;;;;;;;;;;;2.20;87.30;;;;;;5035395;28;20409;-85
2022/04/01 00:38:00;;;;;;;;;;;2.30;87.00;;;;;;5029289;28;19920;-83
2022/04/01 00:40:26;;;;;;;;;;;2.20;86.60;;;;;;5021274;28;19913;-83
2022/04/01 00:42:51;;;;;;;;;;;2.30;86.40;;;;;;5029575;28;19999;-84
2022/04/01 00:45:17;;;;;;;;;;;2.10;87.10;;;;;;5044921;28;20356;-83
2022/04/01 00:47:42;;;;;;;;;;;2.20;87.10;;;;;;5041338;28;19917;-83
2022/04/01 00:50:08;;;;;;;;;;;2.10;86.90;;;;;;5027890;28;19924;-84
2022/04/01 00:52:34;;;;;;;;;;;2.00;87.30;;;;;;5033946;28;19928;-83
2022/04/01 00:55:01;;;;;;;;;;;2.10;87.60;;;;;;5033644;28;19913;-85
2022/04/01 00:57:26;;;;;;;;;;;2.20;87.60;;;;;;5032430;28;20526;-82
2022/04/01 00:59:54;;;;;;;;;;;2.20;87.40;;;;;;5032736;28;19913;-82
2022/04/01 01:02:20;;;;;;;;;;;2.20;87.30;;;;;;5030601;28;19936;-82
2022/04/01 01:04:45;;;;;;;;;;;2.20;86.70;;;;;;5065716;22;20204;-82
2022/04/01 01:07:12;;;;;;;;;;;2.30;86.40;;;;;;5055068;28;19924;-80
2022/04/01 01:09:37;;;;;;;;;;;2.20;86.10;;;;;;5059429;28;19921;-82
2022/04/01 01:12:03;;;;;;;;;;;2.10;86.20;;;;;;5061529;28;20185;-81
2022/04/01 01:14:31;;;;;;;;;;;2.00;86.20;;;;;;5062550;28;19923;-83
2022/04/01 01:16:58;;;;;;;;;;;2.10;86.40;;;;;;5060415;28;19948;-82
2022/04/01 01:19:24;;;;;;;;;;;2.00;85.90;;;;;;5059378;28;20270;-82
2022/04/01 01:21:51;;;;;;;;;;;2.10;86.00;;;;;;5062558;28;19971;-82
2022/04/01 01:24:16;;;;;;;;;;;2.10;86.20;;;;;;5061540;28;19932;-81
2022/04/01 01:26:44;;;;;;;;;;;2.10;86.00;;;;;;5060933;28;19921;-82
2022/04/01 01:29:10;;;;;;;;;;;2.00;85.70;;;;;;5060152;28;19913;-82
2022/04/01 01:31:36;;;;;;;;;;;1.90;86.20;;;;;;5060715;28;19912;-81
2022/04/01 01:34:02;;;;;;;;;;;1.90;86.60;;;;;;5061608;28;19931;-80
2022/04/01 01:36:28;;;;;;;;;;;2.10;86.30;;;;;;5059165;28;20011;-81
2022/04/01 01:38:54;;;;;;;;;;;2.00;85.60;;;;;;5059852;28;19909;-81
2022/04/01 01:41:20;;;;;;;;;;;2.10;85.90;;;;;;5059609;28;20047;-83
2022/04/01 01:43:46;;;;;;;;;;;1.90;85.60;;;;;;5059612;28;19967;-80
2022/04/01 01:46:11;;;;;;;;;;;1.90;85.90;;;;;;5060194;28;19984;-82
2022/04/01 01:48:37;;;;;;;;;;;2.00;86.40;;;;;;5058486;28;19932;-80
2022/04/01 01:56:31;;;;;;;;;;;1.90;85.80;;;;;;5057144;28;19920;-82
2022/04/01 01:58:57;;;;;;;;;;;1.90;86.00;;;;;;5056182;28;19917;-81
2022/04/01 02:01:22;;;;;;;;;;;1.90;85.80;;;;;;5060061;28;19913;-82
2022/04/01 02:03:49;;;;;;;;;;;1.80;86.00;;;;;;5059340;28;19917;-80
2022/04/01 02:06:15;;;;;;;;;;;1.80;86.00;;;;;;5059754;28;20151;-81
2022/04/01 02:08:40;;;;;;;;;;;1.90;85.70;;;;;;5059658;28;19927;-81
2022/04/01 02:11:07;;;;;;;;;;;2.00;85.70;;;;;;5060195;28;19961;-79
2022/04/01 02:13:33;;;;;;;;;;;1.90;85.50;;;;;;5056124;28;19948;-81
2022/04/01 02:15:59;;;;;;;;;;;1.80;85.80;;;;;;5054720;28;19913;-81
2022/04/01 02:18:25;;;;;;;;;;;1.80;85.80;;;;;;5060574;28;19912;-79
2022/04/01 02:20:51;;;;;;;;;;;1.80;85.90;;;;;;5072076;28;19973;-80
2022/04/01 02:23:19;;;;;;;;;;;1.80;85.90;;;;;;5073292;28;19913;-78
2022/04/01 02:25:45;;;;;;;;;;;1.70;86.20;;;;;;5062892;28;19912;-82
2022/04/01 02:28:12;;;;;;;;;;;1.80;85.50;;;;;;5063585;28;19927;-80
2022/04/01 02:30:38;;;;;;;;;;;1.80;85.70;;;;;;5060557;28;19952;-80
2022/04/01 02:33:03;;;;;;;;;;;1.80;85.40;;;;;;5057567;28;19913;-80
2022/04/01 02:35:29;;;;;;;;;;;1.70;85.20;;;;;;5055159;28;19919;-80
2022/04/01 02:37:55;;;;;;;;;;;1.60;85.70;;;;;;5056116;28;19923;-80
2022/04/01 02:40:20;;;;;;;;;;;1.60;86.20;;;;;;5058817;28;20046;-80
2022/04/01 02:42:46;;;;;;;;;;;1.70;86.10;;;;;;5060316;28;19920;-80
2022/04/01 02:45:13;;;;;;;;;;;1.60;85.60;;;;;;5060796;28;19913;-80
2022/04/01 02:47:39;;;;;;;;;;;1.70;86.50;;;;;;5059864;28;20373;-79
2022/04/01 02:50:06;;;;;;;;;;;1.70;85.80;;;;;;5059808;28;19912;-82
2022/04/01 02:52:31;;;;;;;;;;;1.70;85.50;;;;;;5059181;28;19920;-81
2022/04/01 02:54:57;;;;;;;;;;;1.70;86.10;;;;;;5058842;28;19928;-82
2022/04/01 02:57:22;;;;;;;;;;;1.80;85.80;;;;;;5068093;28;20580;-80
2022/04/01 02:59:48;;;;;;;;;;;1.70;85.40;;;;;;5071560;28;19917;-82
2022/04/01 03:02:15;;;;;;;;;;;1.60;85.40;;;;;;5061602;28;19917;-81
2022/04/01 03:04:40;;;;;;;;;;;1.60;85.50;;;;;;5071167;28;20008;-84
2022/04/01 03:07:06;;;;;;;;;;;1.60;85.10;;;;;;5058833;28;19932;-82
2022/04/01 03:09:32;;;;;;;;;;;1.60;85.50;;;;;;5056630;28;19917;-82
2022/04/01 03:11:58;;;;;;;;;;;1.70;85.80;;;;;;5057915;28;19943;-81
2022/04/01 03:14:23;;;;;;;;;;;1.70;85.40;;;;;;5056791;28;19917;-81
2022/04/01 03:16:49;;;;;;;;;;;1.60;85.50;;;;;;5056470;28;19917;-82
2022/04/01 03:19:16;;;;;;;;;;;1.70;85.50;;;;;;5055294;28;19963;-83
2022/04/01 03:21:42;;;;;;;;;;;1.70;85.30;;;;;;5057484;28;19919;-81
2022/04/01 03:24:10;;;;;;;;;;;1.70;85.50;;;;;;5055932;28;20007;-82
2022/04/01 03:26:37;;;;;;;;;;;1.70;85.40;;;;;;5049860;28;19963;-81
2022/04/01 03:29:02;;;;;;;;;;;1.60;85.50;;;;;;5057735;28;20000;-81
2022/04/01 03:31:28;;;;;;;;;;;1.60;85.50;;;;;;5057227;28;19921;-82
2022/04/01 03:33:54;;;;;;;;;;;1.60;85.20;;;;;;5057049;28;19927;-82
2022/04/01 03:36:20;;;;;;;;;;;1.60;85.40;;;;;;5056728;28;19912;-82
2022/04/01 03:38:46;;;;;;;;;;;1.60;85.00;;;;;;5059174;28;19912;-82
2022/04/01 03:41:12;;;;;;;;;;;1.60;85.70;;;;;;5056465;28;19962;-82
2022/04/01 03:43:40;;;;;;;;;;;1.60;85.50;;;;;;5056978;28;20355;-83
2022/04/01 03:46:08;;;;;;;;;;;1.70;85.20;;;;;;5057571;28;19935;-82
2022/04/01 03:48:38;;;;;;;;;;;1.60;85.50;;;;;;5056158;28;19952;-81
2022/04/01 03:51:04;;;;;;;;;;;1.50;85.50;;;;;;5057831;28;20003;-81
2022/04/01 03:53:31;;;;;;;;;;;1.50;85.60;;;;;;5054675;28;19952;-82
2022/04/01 03:55:57;;;;;;;;;;;1.60;85.20;;;;;;5056015;28;19968;-81
2022/04/01 03:58:43;;;;;;;;;;;1.60;85.30;;;;;;5052339;28;19912;-81
2022/04/01 04:01:11;;;;;;;;;;;1.60;85.40;;;;;;5055397;28;19916;-82
2022/04/01 04:03:38;;;;;;;;;;;1.50;84.70;;;;;;4985978;28;1865630;-82
2022/04/01 04:06:09;;;;;;;;;;;1.50;85.40;;;;;;5058798;28;19920;-81
2022/04/01 04:08:36;;;;;;;;;;;1.50;85.30;;;;;;5054907;28;19962;-79
2022/04/01 04:11:02;;;;;;;;;;;1.50;85.00;;;;;;5055937;28;19913;-82
2022/04/01 04:13:27;;;;;;;;;;;1.50;85.40;;;;;;5056612;28;21984;-81
2022/04/01 04:16:05;;;;;;;;;;;1.40;85.40;;;;;;5059266;28;19941;-81
2022/04/01 04:18:51;;;;;;;;;;;1.30;85.30;;;;;;5063086;28;19940;-80
2022/04/01 04:21:22;;;;;;;;;;;1.40;85.30;;;;;;5067653;28;19943;-82
2022/04/01 04:23:50;;;;;;;;;;;1.40;85.50;;;;;;5057698;28;19916;-80
2022/04/01 04:26:18;;;;;;;;;;;1.40;85.60;;;;;;5059220;28;19925;-82
2022/04/01 04:28:48;;;;;;;;;;;1.50;85.00;;;;;;5059055;28;19952;-82
2022/04/01 04:31:14;;;;;;;;;;;1.50;85.00;;;;;;5061247;28;19913;-82
2022/04/01 04:33:45;;;;;;;;;;;1.50;85.30;;;;;;5055680;28;19917;-82
2022/04/01 04:36:10;;;;;;;;;;;1.50;85.00;;;;;;5056407;28;19921;-81
2022/04/01 04:38:38;;;;;;;;;;;1.60;84.50;;;;;;5055045;28;20396;-81
2022/04/01 04:41:08;;;;;;;;;;;1.50;84.50;;;;;;5054480;28;20003;-83
2022/04/01 04:43:38;;;;;;;;;;;1.50;85.00;;;;;;5048312;28;19913;-82
2022/04/01 04:46:05;;;;;;;;;;;1.50;84.70;;;;;;5052493;28;19909;-81
2022/04/01 04:48:32;;;;;;;;;;;1.50;84.60;;;;;;5053306;28;20003;-82
2022/04/01 04:50:59;;;;;;;;;;;1.50;84.60;;;;;;5055325;28;19924;-81
2022/04/01 04:53:27;;;;;;;;;;;1.50;84.40;;;;;;5051487;28;19920;-82
2022/04/01 04:55:53;;;;;;;;;;;1.40;84.20;;;;;;5057326;28;20003;-83
2022/04/01 04:58:21;;;;;;;;;;;1.40;84.30;;;;;;5055923;28;19924;-81
2022/04/01 05:00:52;;;;;;;;;;;1.40;84.20;;;;;;5042153;28;19971;-83
2022/04/01 05:03:29;;;;;;;;;;;1.40;84.50;;;;;;5052652;28;19938;-82
2022/04/01 05:05:57;;;;;;;;;;;1.40;84.60;;;;;;5048069;28;19917;-79
2022/04/01 05:08:41;;;;;;;;;;;1.40;84.80;;;;;;5053578;28;19974;-81
2022/04/01 05:11:10;;;;;;;;;;;1.40;84.30;;;;;;5055288;28;19917;-82
2022/04/01 05:13:55;;;;;;;;;;;1.40;84.00;;;;;;5052677;28;20397;-80
2022/04/01 05:16:39;;;;;;;;;;;1.40;83.70;;;;;;5054206;28;19913;-80
2022/04/01 05:19:12;;;;;;;;;;;1.50;84.10;;;;;;5053153;28;19959;-82
2022/04/01 05:21:47;;;;;;;;;;;1.50;83.90;;;;;;5053812;28;19928;-79
2022/04/01 05:24:14;;;;;;;;;;;1.40;83.90;;;;;;5055280;28;19924;-81
2022/04/01 05:26:41;;;;;;;;;;;1.30;84.20;;;;;;5070028;28;19952;-79
2022/04/01 05:29:13;;;;;;;;;;;1.40;84.50;;;;;;5067705;28;19912;-79
2022/04/01 05:31:42;;;;;;;;;;;1.40;84.20;;;;;;5070096;28;19901;-80
2022/04/01 05:34:23;;;;;;;;;;;1.40;83.70;;;;;;5069370;28;19996;-81
2022/04/01 05:36:50;;;;;;;;;;;1.50;83.70;;;;;;5057310;28;19984;-82
2022/04/01 05:39:16;;;;;;;;;;;1.50;83.30;;;;;;5053779;28;20091;-80
2022/04/01 05:41:42;;;;;;;;;;;1.40;84.00;;;;;;5045958;28;20374;-81
2022/04/01 05:44:09;;;;;;;;;;;1.40;83.60;;;;;;5051865;28;19916;-82
2022/04/01 05:46:36;;;;;;;;;;;1.50;83.20;;;;;;5048198;28;19921;-80
2022/04/01 05:49:01;;;;;;;;;;;1.50;82.80;;;;;;5051729;28;19920;-80
2022/04/01 05:51:29;;;;;;;;;;;1.40;83.20;;;;;;5050023;28;20337;-78
2022/04/01 05:53:55;;;;;;;;;;;1.40;83.50;;;;;;5050795;28;19999;-81
2022/04/01 05:56:22;;;;;;;;;;;1.50;83.10;;;;;;5052397;28;20273;-78
2022/04/01 05:58:47;;;;;;;;;;;1.40;83.20;;;;;;5044817;28;19971;-78
2022/04/01 06:01:31;;;;;;;;;;;1.30;83.30;;;;;;5063840;28;20173;-79
2022/04/01 06:04:07;;;;;;;;;;;1.40;83.70;;;;;;5055388;28;20399;-78
2022/04/01 06:06:38;;;;;;;;;;;1.30;83.40;;;;;;5052508;28;19958;-80
2022/04/01 06:09:16;;;;;;;;;;;1.40;83.00;;;;;;5053356;28;19961;-78
2022/04/01 06:11:44;;;;;;;;;;;1.20;82.80;;;;;;5053099;28;20494;-80
2022/04/01 06:14:16;;;;;;;;;;;1.30;83.00;;;;;;5050232;28;19908;-79
2022/04/01 06:16:43;;;;;;;;;;;1.40;82.20;;;;;;5049118;28;19917;-80
2022/04/01 06:19:23;;;;;;;;;;;1.20;83.10;;;;;;5052386;28;19927;-80
2022/04/01 06:21:53;;;;;;;;;;;1.40;83.50;;;;;;5044282;28;19978;-80
2022/04/01 06:24:25;;;;;;;;;;;1.30;82.90;;;;;;5052678;28;19913;-80
2022/04/01 06:26:54;;;;;;;;;;;1.40;83.40;;;;;;5054546;28;19912;-80
2022/04/01 06:29:26;;;;;;;;;;;1.40;82.70;;;;;;5051514;28;19913;-79
2022/04/01 06:31:53;;;;;;;;;;;1.40;82.80;;;;;;5053535;28;19913;-82
2022/04/01 06:34:24;;;;;;;;;;;1.30;82.60;;;;;;5050919;28;19913;-80
2022/04/01 06:36:50;;;;;;;;;;;1.30;82.80;;;;;;5057893;28;19913;-81
2022/04/01 06:39:25;;;;;;;;;;;1.30;82.20;;;;;;5055597;28;19934;-81
2022/04/01 06:41:54;;;;;;;;;;;1.20;82.90;;;;;;5058370;28;19988;-80
2022/04/01 06:44:20;;;;;;;;;;;1.40;82.60;;;;;;5056211;28;19909;-80
2022/04/01 06:46:48;;;;;;;;;;;1.40;82.30;;;;;;5052798;28;19917;-81
2022/04/01 06:49:14;;;;;;;;;;;1.30;82.50;;;;;;5052390;28;20015;-81
2022/04/01 06:51:40;;;;;;;;;;;1.20;82.30;;;;;;5058381;28;19916;-81
2022/04/01 06:54:06;;;;;;;;;;;1.40;82.60;;;;;;5059058;28;19995;-80
2022/04/01 06:56:33;;;;;;;;;;;1.40;82.40;;;;;;5069753;28;19955;-79
2022/04/01 06:58:58;;;;;;;;;;;1.50;82.80;;;;;;5061579;28;19931;-80
2022/04/01 07:01:25;;;;;;;;;;;1.60;81.60;;;;;;5057200;28;19956;-80
2022/04/01 07:03:52;;;;;;;;;;;1.50;82.00;;;;;;5051783;28;19913;-81
2022/04/01 07:06:18;;;;;;;;;;;1.50;81.90;;;;;;5081233;22;19925;-81
2022/04/01 07:08:43;;;;;;;;;;;1.50;81.70;;;;;;5051815;28;19917;-81
2022/04/01 07:11:10;;;;;;;;;;;1.50;81.40;;;;;;5038418;28;19925;-81
2022/04/01 07:13:35;;;;;;;;;;;1.50;81.70;;;;;;5044559;28;19917;-80
2022/04/01 07:16:00;;;;;;;;;;;1.50;81.70;;;;;;5067644;28;19913;-80
2022/04/01 07:18:26;;;;;;;;;;;1.40;81.30;;;;;;5036087;28;19914;-83
2022/04/01 07:20:52;;;;;;;;;;;1.50;81.30;;;;;;5035464;28;19949;-84
2022/04/01 07:23:18;;;;;;;;;;;1.40;81.20;;;;;;5032672;28;20140;-84
2022/04/01 07:25:43;;;;;;;;;;;1.30;81.80;;;;;;5034650;28;19913;-83
2022/04/01 07:28:12;;;;;;;;;;;1.30;81.70;;;;;;5035122;28;19999;-82
2022/04/01 07:30:37;;;;;;;;;;;1.40;81.10;;;;;;5033505;28;19936;-83
2022/04/01 07:33:03;;;;;;;;;;;1.30;82.10;;;;;;5032600;28;19913;-82
2022/04/01 07:35:29;;;;;;;;;;;1.40;81.90;;;;;;5031804;28;19956;-79
2022/04/01 07:37:55;;;;;;;;;;;1.40;81.40;;;;;;5030402;28;20287;-80
2022/04/01 07:40:21;;;;;;;;;;;1.40;81.60;;;;;;5033996;28;19984;-81
2022/04/01 07:42:48;;;;;;;;;;;1.40;81.60;;;;;;5038249;28;19913;-82
2022/04/01 07:45:14;;;;;;;;;;;1.50;81.80;;;;;;5037030;28;19913;-81
2022/04/01 07:47:44;;;;;;;;;;;1.40;80.60;;;;;;5052639;28;19913;-81
2022/04/01 07:50:10;;;;;;;;;;;1.60;80.90;;;;;;5037683;28;19948;-81
2022/04/01 07:52:40;;;;;;;;;;;1.50;80.50;;;;;;5035277;28;19917;-81
2022/04/01 07:55:05;;;;;;;;;;;1.40;80.50;;;;;;5036435;28;20469;-81
2022/04/01 07:57:31;;;;;;;;;;;1.50;80.40;;;;;;5034084;28;19909;-81
2022/04/01 07:59:56;;;;;;;;;;;1.30;81.10;;;;;;5043310;28;20004;-81
2022/04/01 08:02:22;;;;;;;;;;;1.50;81.20;;;;;;5032717;28;19948;-80
2022/04/01 08:04:47;;;;;;;;;;;1.50;80.90;;;;;;5041576;28;20365;-82
2022/04/01 08:07:13;;;;;;;;;;;1.60;80.40;;;;;;5044096;28;19917;-80
2022/04/01 08:09:38;;;;;;;;;;;1.40;80.80;;;;;;5033816;28;19913;-81
2022/04/01 08:12:04;;;;;;;;;;;1.30;81.00;;;;;;5033421;28;19909;-81
2022/04/01 08:14:29;;;;;;;;;;;1.40;81.20;;;;;;5035039;28;20372;-81
2022/04/01 08:16:56;;;;;;;;;;;1.40;80.80;;;;;;5033596;28;19917;-83
2022/04/01 08:19:22;;;;;;;;;;;1.50;80.60;;;;;;5036265;28;20376;-83
2022/04/01 08:21:49;;;;;;;;;;;1.40;80.80;;;;;;5033765;28;19920;-83
2022/04/01 08:24:16;;;;;;;;;;;1.50;80.50;;;;;;5039975;28;20380;-84
2022/04/01 08:26:41;;;;;;;;;;;1.60;80.20;;;;;;5035057;28;19928;-84
2022/04/01 08:29:07;;;;;;;;;;;1.70;79.40;;;;;;5035511;28;19909;-80
2022/04/01 08:31:33;;;;;;;;;;;1.60;79.10;;;;;;5037059;28;19913;-82
2022/04/01 08:33:58;;;;;;;;;;;1.50;79.40;;;;;;5038975;28;19909;-82
2022/04/01 08:36:24;;;;;;;;;;;1.40;79.40;;;;;;5040141;28;20005;-81
2022/04/01 08:38:50;;;;;;;;;;;1.50;79.30;;;;;;5042713;28;19944;-83
2022/04/01 08:41:20;;;;;;;;;;;1.40;79.30;;;;;;5038378;28;20324;-82
2022/04/01 08:43:47;;;;;;;;;;;1.60;79.60;;;;;;5036868;28;19933;-81
2022/04/01 08:46:13;;;;;;;;;;;1.50;79.30;;;;;;5040619;28;19917;-81
2022/04/01 08:48:38;;;;;;;;;;;1.70;79.30;;;;;;5050016;28;20044;-82
2022/04/01 08:51:04;;;;;;;;;;;1.70;78.80;;;;;;5043518;28;20391;-83
2022/04/01 08:53:34;;;;;;;;;;;1.80;78.50;;;;;;5039636;28;20256;-81
2022/04/01 08:55:59;;;;;;;;;;;1.60;79.10;;;;;;5034223;28;19993;-82
2022/04/01 08:58:24;;;;;;;;;;;1.50;79.90;;;;;;5037219;28;19921;-82
2022/04/01 09:00:51;;;;;;;;;;;1.60;79.70;;;;;;5045903;28;19921;-81
2022/04/01 09:03:18;;;;;;;;;;;1.60;79.40;;;;;;5035185;28;20426;-80
2022/04/01 09:05:45;;;;;;;;;;;1.70;79.70;;;;;;5056420;28;19916;-81
2022/04/01 09:08:14;;;;;;;;;;;1.80;79.70;;;;;;5060187;28;19979;-81
2022/04/01 09:10:50;;;;;;;;;;;1.80;78.70;;;;;;5052409;28;19916;-79
2022/04/01 09:13:16;;;;;;;;;;;1.80;78.40;;;;;;5042351;28;20004;-81
2022/04/01 09:15:43;;;;;;;;;;;1.50;79.20;;;;;;5036546;28;20055;-82
2022/04/01 09:18:09;;;;;;;;;;;1.60;79.60;;;;;;5031780;28;19913;-78
2022/04/01 09:20:41;;;;;;;;;;;1.70;78.80;;;;;;5034029;28;19917;-76
2022/04/01 09:23:07;;;;;;;;;;;1.70;78.30;;;;;;5025696;28;20007;-78
2022/04/01 09:25:32;;;;;;;;;;;1.60;78.30;;;;;;5024784;28;20009;-77
2022/04/01 09:27:58;;;;;;;;;;;1.60;78.40;;;;;;5028729;28;20369;-78
2022/04/01 09:30:31;;;;;;;;;;;1.60;79.20;;;;;;5030564;28;20016;-77
2022/04/01 09:32:59;;;;;;;;;;;1.80;78.10;;;;;;5029080;28;20324;-77
2022/04/01 09:35:25;;;;;;;;;;;1.90;78.30;;;;;;5030256;28;19920;-78
2022/04/01 09:37:54;;;;;;;;;;;1.80;78.90;;;;;;5031181;28;19984;-78
2022/04/01 09:40:21;;;;;;;;;;;1.80;78.10;;;;;;5030222;28;19913;-79
2022/04/01 09:42:47;;;;;;;;;;;1.70;78.00;;;;;;5034891;28;19923;-79
2022/04/01 09:45:20;;;;;;;;;;;1.90;78.80;;;;;;5030831;28;19992;-78
2022/04/01 09:47:56;;;;;;;;;;;1.70;78.50;;;;;;5032748;28;19913;-79
2022/04/01 09:50:25;;;;;;;;;;;2.00;78.00;;;;;;5029731;28;19909;-78
2022/04/01 09:52:51;;;;;;;;;;;1.90;78.30;;;;;;5032791;28;20364;-78
2022/04/01 09:55:17;;;;;;;;;;;2.00;78.50;;;;;;5032712;28;19920;-79
2022/04/01 09:57:42;;;;;;;;;;;2.10;78.40;;;;;;5028487;28;19979;-82
2022/04/01 10:00:09;;;;;;;;;;;2.10;78.40;;;;;;5037810;28;20333;-81
2022/04/01 10:02:35;;;;;;;;;;;2.00;78.70;;;;;;5032151;28;20015;-79
2022/04/01 10:05:00;;;;;;;;;;;1.90;79.50;;;;;;5029909;28;19951;-81
2022/04/01 10:07:27;;;;;;;;;;;2.00;79.30;;;;;;5031702;28;19913;-81
2022/04/01 10:09:54;;;;;;;;;;;2.10;78.60;;;;;;5030281;28;19915;-81
2022/04/01 10:12:21;;;;;;;;;;;2.20;79.00;;;;;;5030333;28;20444;-80
2022/04/01 10:14:47;;;;;;;;;;;2.40;78.80;;;;;;5029898;28;20458;-78
2022/04/01 10:17:14;;;;;;;;;;;2.40;78.10;;;;;;5028345;28;19909;-78
2022/04/01 10:19:41;;;;;;;;;;;2.30;79.00;;;;;;5028580;28;19968;-78
2022/04/01 10:22:06;;;;;;;;;;;2.20;79.40;;;;;;5028855;28;20338;-78
2022/04/01 10:24:32;;;;;;;;;;;2.20;80.50;;;;;;5033489;28;19948;-78
2022/04/01 10:27:21;;;;;;;;;;;2.40;80.20;;;;;;5032088;28;19937;-79
2022/04/01 10:29:46;;;;;;;;;;;2.50;79.70;;;;;;5029284;28;19965;-79
2022/04/01 10:32:25;;;;;;;;;;;2.30;80.00;;;;;;5030204;28;19983;-82
2022/04/01 10:34:53;;;;;;;;;;;2.30;79.70;;;;;;5033877;28;20201;-81
2022/04/01 10:37:21;;;;;;;;;;;2.10;80.10;;;;;;5029945;28;19920;-80
2022/04/01 10:39:47;;;;;;;;;;;2.00;80.90;;;;;;5027421;28;19932;-82
2022/04/01 10:42:13;;;;;;;;;;;1.90;81.40;;;;;;5029358;28;20367;-82
2022/04/01 10:44:44;;;;;;;;;;;1.90;81.70;;;;;;5013323;28;19921;-85
2022/04/01 10:47:10;;;;;;;;;;;1.80;81.50;;;;;;5040235;28;20294;-86
2022/04/01 10:52:21;;;;;;;;;;;1.80;82.10;;;;;;5026218;28;19924;-84
2022/04/01 10:54:48;;;;;;;;;;;1.60;82.40;;;;;;5048326;28;20446;-82
2022/04/01 10:57:25;;;;;;;;;;;1.80;82.70;;;;;;5034798;28;19913;-81
2022/04/01 10:59:50;;;;;;;;;;;1.80;81.80;;;;;;5036184;28;19928;-82
2022/04/01 11:02:20;;;;;;;;;;;1.70;83.20;;;;;;5039316;28;19910;-82
2022/04/01 11:04:46;;;;;;;;;;;1.80;82.80;;;;;;5036745;28;19932;-83
2022/04/01 11:07:29;;;;;;;;;;;1.70;82.90;;;;;;5038857;28;19924;-80
2022/04/01 11:10:00;;;;;;;;;;;1.80;82.70;;;;;;5040171;28;19925;-80
2022/04/01 11:12:29;;;;;;;;;;;1.70;83.00;;;;;;5036772;28;19965;-83
2022/04/01 11:14:55;;;;;;;;;;;1.70;83.40;;;;;;5036929;28;19921;-82
2022/04/01 11:17:21;;;;;;;;;;;1.90;83.70;;;;;;5033936;28;19913;-82
2022/04/01 11:20:00;;;;;;;;;;;1.80;82.90;;;;;;5037376;28;19924;-82
2022/04/01 11:22:33;;;;;;;;;;;1.60;83.10;;;;;;5035062;28;19932;-82
2022/04/01 11:24:58;;;;;;;;;;;1.70;82.70;;;;;;5067207;28;19920;-82
2022/04/01 11:27:25;;;;;;;;;;;1.80;82.60;;;;;;5047727;28;19921;-81
2022/04/01 11:30:02;;;;;;;;;;;1.80;82.10;;;;;;5043334;28;19996;-81
2022/04/01 11:32:28;;;;;;;;;;;1.70;83.60;;;;;;5033245;28;20463;-82
2022/04/01 11:34:57;;;;;;;;;;;1.80;83.40;;;;;;5034095;28;20040;-82
2022/04/01 11:37:23;;;;;;;;;;;1.90;83.50;;;;;;5032639;28;19909;-82
2022/04/01 11:39:49;;;;;;;;;;;1.90;83.50;;;;;;5042449;28;19917;-82
2022/04/01 11:42:15;;;;;;;;;;;1.80;83.50;;;;;;5034403;28;20000;-81
2022/04/01 11:44:52;;;;;;;;;;;1.70;83.10;;;;;;5031749;28;19948;-82
2022/04/01 11:47:25;;;;;;;;;;;1.70;83.70;;;;;;5036536;28;19917;-79
2022/04/01 11:50:04;;;;;;;;;;;1.90;84.20;;;;;;5032375;28;19953;-81
2022/04/01 11:52:38;;;;;;;;;;;1.80;84.60;;;;;;5070454;28;20011;-81
2022/04/01 11:55:14;;;;;;;;;;;1.90;84.00;;;;;;5039999;28;19912;-80
2022/04/01 11:57:40;;;;;;;;;;;2.00;83.20;;;;;;5032288;28;20009;-80
2022/04/01 12:00:25;;;;;;;;;;;2.10;84.00;;;;;;5033440;28;19913;-80
2022/04/01 12:02:52;;;;;;;;;;;1.90;84.00;;;;;;5020332;28;19945;-80
2022/04/01 12:05:18;;;;;;;;;;;2.00;83.60;;;;;;5048870;28;20420;-80
2022/04/01 12:10:41;;;;;;;;;;;1.60;85.30;;;;;;5048797;28;19920;-79
2022/04/01 12:13:08;;;;;;;;;;;1.70;85.60;;;;;;5036931;28;20415;-82
2022/04/01 12:15:35;;;;;;;;;;;1.60;84.30;;;;;;5043296;28;20201;-81
2022/04/01 12:18:05;;;;;;;;;;;1.60;85.20;;;;;;5035665;28;19924;-82
2022/04/01 12:20:31;;;;;;;;;;;1.70;84.80;;;;;;5031021;28;20312;-80
2022/04/01 12:22:58;;;;;;;;;;;1.80;84.60;;;;;;5036871;28;19936;-78
2022/04/01 12:25:24;;;;;;;;;;;1.70;84.40;;;;;;5042566;28;19913;-79
2022/04/01 12:27:57;;;;;;;;;;;1.80;84.80;;;;;;5031166;28;19924;-81
2022/04/01 12:30:30;;;;;;;;;;;1.80;85.00;;;;;;5049349;28;20245;-83
2022/04/01 12:32:56;;;;;;;;;;;1.80;85.30;;;;;;5033981;28;20003;-82
2022/04/01 12:35:22;;;;;;;;;;;1.70;84.40;;;;;;5046028;28;19940;-83
2022/04/01 12:38:02;;;;;;;;;;;1.60;84.50;;;;;;5052893;28;19912;-82
2022/04/01 12:40:27;;;;;;;;;;;1.60;84.80;;;;;;5045624;28;20275;-83
2022/04/01 12:42:53;;;;;;;;;;;1.70;85.20;;;;;;5025152;28;19917;-82
2022/04/01 12:45:19;;;;;;;;;;;1.60;84.70;;;;;;5039687;28;20164;-83
2022/04/01 12:47:44;;;;;;;;;;;1.60;85.50;;;;;;5038700;28;19994;-82
2022/04/01 12:50:28;;;;;;;;;;;1.60;85.50;;;;;;5036699;28;19940;-83
2022/04/01 12:53:06;;;;;;;;;;;1.80;85.50;;;;;;5041157;28;20314;-82
2022/04/01 12:55:32;;;;;;;;;;;1.80;85.50;;;;;;5050232;28;19916;-83
2022/04/01 12:57:57;;;;;;;;;;;1.80;85.10;;;;;;5051107;28;19920;-81
2022/04/01 13:00:24;;;;;;;;;;;1.80;85.10;;;;;;5035434;28;19996;-83
2022/04/01 13:02:49;;;;;;;;;;;1.80;85.40;;;;;;5030737;28;19921;-83
2022/04/01 13:05:16;;;;;;;;;;;1.90;85.10;;;;;;5033460;28;19982;-82
2022/04/01 13:07:41;;;;;;;;;;;1.90;84.70;;;;;;5029794;28;19921;-82
2022/04/01 13:10:07;;;;;;;;;;;2.10;85.30;;;;;;5031255;28;19917;-80
2022/04/01 13:12:32;;;;;;;;;;;2.10;84.10;;;;;;5030453;28;19914;-80
2022/04/01 13:15:02;;;;;;;;;;;2.10;85.30;;;;;;5033360;28;19955;-79
2022/04/01 13:17:27;;;;;;;;;;;1.90;85.00;;;;;;5034381;28;20333;-80
2022/04/01 13:19:53;;;;;;;;;;;1.90;85.70;;;;;;5041249;28;19913;-80
2022/04/01 13:22:19;;;;;;;;;;;2.10;85.40;;;;;;5062436;28;19929;-81
2022/04/01 13:24:48;;;;;;;;;;;1.90;85.70;;;;;;5033107;28;19917;-83
2022/04/01 13:27:15;;;;;;;;;;;2.00;85.50;;;;;;5032144;28;19979;-82
2022/04/01 13:29:41;;;;;;;;;;;1.80;86.10;;;;;;5032277;28;19924;-80
2022/04/01 13:32:08;;;;;;;;;;;1.90;85.80;;;;;;5027368;28;19921;-79
2022/04/01 13:34:33;;;;;;;;;;;2.10;85.60;;;;;;5025161;28;19922;-82
2022/04/01 13:36:59;;;;;;;;;;;2.10;85.30;;;;;;5031198;28;19923;-81
2022/04/01 13:39:25;;;;;;;;;;;2.10;85.40;;;;;;5028545;28;19971;-83
2022/04/01 13:41:51;;;;;;;;;;;2.10;85.60;;;;;;5029429;28;19982;-82
2022/04/01 13:44:17;;;;;;;;;;;2.00;85.50;;;;;;5029737;28;20000;-82
2022/04/01 13:46:42;;;;;;;;;;;2.00;85.50;;;;;;5029652;28;20023;-82
2022/04/01 13:49:08;;;;;;;;;;;1.90;85.90;;;;;;5061620;28;19913;-82
2022/04/01 13:51:33;;;;;;;;;;;1.90;86.00;;;;;;5058630;28;19913;-82
2022/04/01 13:53:59;;;;;;;;;;;1.90;86.50;;;;;;5029806;28;20035;-82
2022/04/01 13:56:25;;;;;;;;;;;1.90;86.20;;;;;;5031996;28;19940;-82
2022/04/01 13:58:50;;;;;;;;;;;1.80;86.70;;;;;;5031431;28;20359;-82
2022/04/01 14:01:16;;;;;;;;;;;1.80;86.30;;;;;;5036652;28;20305;-79
2022/04/01 14:03:41;;;;;;;;;;;1.80;87.30;;;;;;5031011;28;19963;-82
2022/04/01 14:06:07;;;;;;;;;;;2.00;87.20;;;;;;5033715;28;20008;-82
2022/04/01 14:08:33;;;;;;;;;;;1.80;87.20;;;;;;5031810;28;19917;-80
2022/04/01 14:11:04;;;;;;;;;;;1.80;87.70;;;;;;4990618;28;20248;-78
2022/04/01 14:13:36;;;;;;;;;;;1.80;88.10;;;;;;4927620;28;20246;-81
2022/04/01 14:16:02;;;;;;;;;;;1.90;88.20;;;;;;4971553;28;20000;-79
2022/04/01 14:18:28;;;;;;;;;;;2.00;88.40;;;;;;5028351;22;20219;-77
2022/04/01 14:20:57;;;;;;;;;;;2.00;88.30;;;;;;4918824;28;19936;-77
2022/04/01 14:23:25;;;;;;;;;;;2.00;87.80;;;;;;4930957;28;20214;-81
2022/04/01 14:26:06;;;;;;;;;;;2.10;87.70;;;;;;4930991;28;20436;-80
2022/04/01 14:28:38;;;;;;;;;;;2.10;87.60;;;;;;4936344;28;20094;-79
2022/04/01 14:31:05;;;;;;;;;;;1.90;87.50;;;;;;4933664;28;20227;-80
2022/04/01 14:33:36;;;;;;;;;;;2.00;87.60;;;;;;4927539;28;20163;-80
2022/04/01 14:36:02;;;;;;;;;;;1.90;87.00;;;;;;4932416;28;20090;-81
2022/04/01 14:38:28;;;;;;;;;;;1.90;87.60;;;;;;4935040;28;20724;-82
2022/04/01 14:40:54;;;;;;;;;;;1.80;88.10;;;;;;4933902;28;20378;-83
2022/04/01 14:43:21;;;;;;;;;;;1.70;88.30;;;;;;4931428;28;20227;-83
2022/04/01 14:45:49;;;;;;;;;;;1.70;88.70;;;;;;4913598;28;20412;-83